ICT,Max TemperatureF,Mean TemperatureF,Min TemperatureF,Max Dew PointF,MeanDew PointF,Min DewpointF,Max Humidity, Mean Humidity, Min Humidity, Max Sea Level PressureIn, Mean Sea Level PressureIn, Min Sea Level PressureIn, Max VisibilityMiles, Mean VisibilityMiles, Min VisibilityMiles, Max Wind SpeedMPH, Mean Wind SpeedMPH, Max Gust SpeedMPH,PrecipitationIn, CloudCover, Events, WindDirDegrees
2012-10-1,87,82,77,77,75,72,89,80,66,29.89,29.84,29.77,6,6,4,9,4,,0.00,6,Rain,85
2012-10-2,87,82,78,79,77,75,94,79,66,29.89,29.81,29.74,6,5,3,9,3,,0.00,3,,107
2012-10-3,89,84,78,77,76,73,89,75,59,29.86,29.78,29.68,6,5,3,9,4,,0.00,3,Thunderstorm,253
2012-10-4,91,86,80,79,76,73,89,72,55,29.80,29.73,29.65,6,6,6,10,4,,0.00,4,,270
2012-10-5,89,84,80,79,77,73,89,75,62,30.09,29.76,29.68,6,6,6,14,4,,0.00,4,,283
2012-10-6,86,82,77,77,75,73,94,78,66,29.83,29.78,29.71,6,6,4,16,7,,0.00,4,Rain,348
2012-10-7,80,78,75,75,74,72,94,87,74,29.80,29.74,29.68,6,5,2,16,10,,0.00,6,Rain,18
2012-10-8,87,82,76,75,74,73,89,77,62,29.80,29.75,29.68,6,6,6,14,8,,0.00,4,Rain,119
2012-10-9,87,82,77,77,75,73,89,77,66,29.86,29.79,29.71,6,6,6,12,7,,0.00,4,,134
2012-10-10,89,84,78,77,75,73,94,78,59,29.89,29.81,29.74,6,6,4,9,4,,0.00,4,Rain,68
2012-10-11,87,82,78,77,75,72,89,72,58,29.89,29.82,29.74,6,6,3,13,5,,0.00,2,,185
2012-10-12,89,84,78,77,75,73,89,73,59,29.89,29.79,29.71,6,5,1,8,3,,0.00,3,Rain,156
2012-10-13,89,82,75,79,75,70,94,77,62,29.86,29.79,29.71,6,6,1,16,4,,0.00,4,Rain,39
2012-10-14,87,82,78,79,75,70,89,77,58,29.89,29.82,29.74,6,5,3,15,3,23,0.00,4,Rain-Thunderstorm,66
2012-10-15,89,84,80,77,76,73,89,74,59,29.92,29.86,29.80,6,6,6,9,5,,0.00,2,,140
2012-10-16,89,84,80,79,76,75,89,75,62,29.92,29.84,29.77,6,6,6,8,3,,0.00,3,,89
2012-10-17,89,84,80,79,77,75,89,77,62,29.92,29.82,29.77,6,6,6,8,3,,0.00,4,,269
2012-10-18,89,83,77,79,72,68,89,67,49,29.92,29.85,29.80,6,6,6,9,6,,0.00,3,,123
2012-10-19,91,84,78,77,73,70,89,66,52,29.92,29.85,29.80,6,6,5,10,3,,0.00,2,,181
2012-10-20,89,84,78,77,74,72,84,69,55,29.89,29.83,29.77,6,6,4,8,4,,0.00,1,,155
2012-10-21,91,84,78,77,73,68,89,67,46,29.92,29.83,29.77,6,6,6,10,5,,0.00,3,,124
2012-10-22,91,84,78,77,75,72,94,74,52,29.89,29.82,29.74,6,6,4,7,4,,0.00,4,Rain-Thunderstorm,214
2012-10-23,89,84,78,75,74,70,89,69,52,29.86,29.78,29.71,6,6,6,9,4,,0.00,3,,74
2012-10-24,87,81,75,79,75,72,94,78,58,29.86,29.78,29.71,6,6,4,8,4,,0.00,4,Rain,121
2012-10-25,89,84,78,77,75,72,89,70,58,29.83,29.76,29.68,6,6,6,9,5,,0.00,2,,195
2012-10-26,87,82,77,75,73,70,94,71,58,29.80,29.74,29.68,6,6,5,15,6,,0.00,3,Rain-Thunderstorm,168
2012-10-27,91,84,78,77,72,68,84,64,49,29.80,29.73,29.65,6,6,6,7,3,,0.00,2,,257
2012-10-28,93,86,80,79,75,70,89,66,49,29.80,29.76,29.68,6,6,5,7,2,,0.00,2,,179
2012-10-29,89,82,74,79,76,73,89,75,59,29.83,29.76,29.71,6,6,6,12,5,,0.00,4,,130
2012-10-30,89,84,78,79,75,73,94,76,59,29.83,29.75,29.68,6,6,6,12,3,,0.00,3,,219
2012-10-31,87,81,75,77,76,73,94,86,66,29.86,29.82,29.74,6,5,1,14,3,,0.00,4,Rain-Thunderstorm,39